sensor_id;sensor_type;location;lat;lon;timestamp;temperature;humidity
19218;DHT22;9743;52.550;13.264;2022-09-09T00:01:50;15.00;99.90
19218;DHT22;9743;52.550;13.264;2022-09-09T00:04:25;15.00;99.90
19218;DHT22;9743;52.550;13.264;2022-09-09T00:07:01;15.00;99.90
19218;DHT22;9743;52.550;13.264;2022-09-09T00:09:31;14.90;99.90
19218;DHT22;9743;52.550;13.264;2022-09-09T00:12:10;14.90;99.90
19218;DHT22;9743;52.550;13.264;2022-09-09T00:14:45;14.80;99.90
19218;DHT22;9743;52.550;13.264;2022-09-09T00:17:21;14.90;99.90
19218;DHT22;9743;52.550;13.264;2022-09-09T00:19:55;15.00;99.90
19218;DHT22;9743;52.550;13.264;2022-09-09T00:22:28;15.10;99.90
19218;DHT22;9743;52.550;13.264;2022-09-09T00:25:01;15.00;99.90
19218;DHT22;9743;52.550;13.264;2022-09-09T00:27:32;14.90;99.90
19218;DHT22;9743;52.550;13.264;2022-09-09T00:30:14;14.90;99.90
19218;DHT22;9743;52.550;13.264;2022-09-09T00:32:41;14.90;99.90
19218;DHT22;9743;52.550;13.264;2022-09-09T00:35:17;14.90;99.90
19218;DHT22;9743;52.550;13.264;2022-09-09T00:37:48;15.00;99.90
19218;DHT22;9743;52.550;13.264;2022-09-09T00:40:23;14.90;99.90
19218;DHT22;9743;52.550;13.264;2022-09-09T00:43:00;14.90;99.90
19218;DHT22;9743;52.550;13.264;2022-09-09T00:45:57;14.90;99.90
19218;DHT22;9743;52.550;13.264;2022-09-09T00:48:31;14.90;99.90
19218;DHT22;9743;52.550;13.264;2022-09-09T00:51:08;14.80;99.90
19218;DHT22;9743;52.550;13.264;2022-09-09T00:54:00;14.90;99.90
19218;DHT22;9743;52.550;13.264;2022-09-09T00:56:34;14.90;99.90
19218;DHT22;9743;52.550;13.264;2022-09-09T00:59:15;14.90;99.90
19218;DHT22;9743;52.550;13.264;2022-09-09T01:01:49;14.80;99.90
19218;DHT22;9743;52.550;13.264;2022-09-09T01:04:21;14.80;99.90
19218;DHT22;9743;52.550;13.264;2022-09-09T01:06:55;14.70;99.90
19218;DHT22;9743;52.550;13.264;2022-09-09T01:09:29;14.80;99.90
19218;DHT22;9743;52.550;13.264;2022-09-09T01:12:02;14.70;99.90
19218;DHT22;9743;52.550;13.264;2022-09-09T01:14:41;14.70;99.90
19218;DHT22;9743;52.550;13.264;2022-09-09T01:17:14;14.80;99.90
19218;DHT22;9743;52.550;13.264;2022-09-09T01:19:57;14.80;99.90
19218;DHT22;9743;52.550;13.264;2022-09-09T01:22:33;14.70;99.90
19218;DHT22;9743;52.550;13.264;2022-09-09T01:25:18;14.80;99.90
19218;DHT22;9743;52.550;13.264;2022-09-09T01:27:48;14.70;99.90
19218;DHT22;9743;52.550;13.264;2022-09-09T01:30:17;14.70;99.90
19218;DHT22;9743;52.550;13.264;2022-09-09T01:32:46;14.70;99.90
19218;DHT22;9743;52.550;13.264;2022-09-09T01:35:22;14.60;99.90
19218;DHT22;9743;52.550;13.264;2022-09-09T01:37:53;14.70;99.90
19218;DHT22;9743;52.550;13.264;2022-09-09T01:40:20;14.60;99.90
19218;DHT22;9743;52.550;13.264;2022-09-09T01:42:49;14.60;99.90
19218;DHT22;9743;52.550;13.264;2022-09-09T01:45:16;14.60;99.90
19218;DHT22;9743;52.550;13.264;2022-09-09T01:47:43;14.50;99.90
19218;DHT22;9743;52.550;13.264;2022-09-09T01:50:14;14.60;99.90
19218;DHT22;9743;52.550;13.264;2022-09-09T01:52:42;14.50;99.90
19218;DHT22;9743;52.550;13.264;2022-09-09T01:55:10;14.50;99.90
19218;DHT22;9743;52.550;13.264;2022-09-09T01:57:42;14.50;99.90
19218;DHT22;9743;52.550;13.264;2022-09-09T02:00:13;14.60;99.90
19218;DHT22;9743;52.550;13.264;2022-09-09T02:02:47;14.70;99.90
19218;DHT22;9743;52.550;13.264;2022-09-09T02:05:21;14.70;99.90
19218;DHT22;9743;52.550;13.264;2022-09-09T02:07:52;14.70;99.90
19218;DHT22;9743;52.550;13.264;2022-09-09T02:10:24;14.70;99.90
19218;DHT22;9743;52.550;13.264;2022-09-09T02:12:58;14.60;99.90
19218;DHT22;9743;52.550;13.264;2022-09-09T02:15:33;14.60;99.90
19218;DHT22;9743;52.550;13.264;2022-09-09T02:18:04;14.50;99.90
19218;DHT22;9743;52.550;13.264;2022-09-09T02:20:35;14.60;99.90
19218;DHT22;9743;52.550;13.264;2022-09-09T02:23:04;14.70;99.90
19218;DHT22;9743;52.550;13.264;2022-09-09T02:25:33;14.60;99.90
19218;DHT22;9743;52.550;13.264;2022-09-09T02:28:04;14.60;99.90
19218;DHT22;9743;52.550;13.264;2022-09-09T02:30:35;14.60;99.90
19218;DHT22;9743;52.550;13.264;2022-09-09T02:33:04;14.60;99.90
19218;DHT22;9743;52.550;13.264;2022-09-09T02:35:36;14.50;99.90
19218;DHT22;9743;52.550;13.264;2022-09-09T02:38:09;14.50;99.90
19218;DHT22;9743;52.550;13.264;2022-09-09T02:40:37;14.50;99.90
19218;DHT22;9743;52.550;13.264;2022-09-09T02:43:03;14.50;99.90
19218;DHT22;9743;52.550;13.264;2022-09-09T02:45:36;14.50;99.90
19218;DHT22;9743;52.550;13.264;2022-09-09T02:48:10;14.50;99.90
19218;DHT22;9743;52.550;13.264;2022-09-09T02:50:41;14.40;99.90
19218;DHT22;9743;52.550;13.264;2022-09-09T02:53:12;14.40;99.90
19218;DHT22;9743;52.550;13.264;2022-09-09T02:55:46;14.40;99.90
19218;DHT22;9743;52.550;13.264;2022-09-09T02:58:16;14.40;99.90
19218;DHT22;9743;52.550;13.264;2022-09-09T03:00:47;14.40;99.90
19218;DHT22;9743;52.550;13.264;2022-09-09T03:03:14;14.30;99.90
19218;DHT22;9743;52.550;13.264;2022-09-09T03:05:42;14.30;99.90
19218;DHT22;9743;52.550;13.264;2022-09-09T03:08:09;14.20;99.90
19218;DHT22;9743;52.550;13.264;2022-09-09T03:10:36;14.20;99.90
19218;DHT22;9743;52.550;13.264;2022-09-09T03:13:03;14.20;99.90
19218;DHT22;9743;52.550;13.264;2022-09-09T03:15:31;14.20;99.90
19218;DHT22;9743;52.550;13.264;2022-09-09T03:18:00;14.10;99.90
19218;DHT22;9743;52.550;13.264;2022-09-09T03:20:28;14.00;99.90
19218;DHT22;9743;52.550;13.264;2022-09-09T03:22:56;14.00;99.90
19218;DHT22;9743;52.550;13.264;2022-09-09T03:25:23;13.90;99.90
19218;DHT22;9743;52.550;13.264;2022-09-09T03:27:51;13.90;99.90
19218;DHT22;9743;52.550;13.264;2022-09-09T03:30:19;13.90;99.90
19218;DHT22;9743;52.550;13.264;2022-09-09T03:32:46;13.90;99.90
19218;DHT22;9743;52.550;13.264;2022-09-09T03:35:15;13.90;99.90
19218;DHT22;9743;52.550;13.264;2022-09-09T03:37:42;14.00;99.90
19218;DHT22;9743;52.550;13.264;2022-09-09T03:40:10;14.00;99.90
19218;DHT22;9743;52.550;13.264;2022-09-09T03:42:37;14.10;99.90
19218;DHT22;9743;52.550;13.264;2022-09-09T03:45:06;14.00;99.90
19218;DHT22;9743;52.550;13.264;2022-09-09T03:47:33;14.00;99.90
19218;DHT22;9743;52.550;13.264;2022-09-09T03:49:59;13.90;99.90
19218;DHT22;9743;52.550;13.264;2022-09-09T03:52:27;14.00;99.90
19218;DHT22;9743;52.550;13.264;2022-09-09T03:54:56;13.90;99.90
19218;DHT22;9743;52.550;13.264;2022-09-09T03:57:22;13.90;99.90
19218;DHT22;9743;52.550;13.264;2022-09-09T03:59:49;13.90;99.90
19218;DHT22;9743;52.550;13.264;2022-09-09T04:02:16;14.00;99.90
19218;DHT22;9743;52.550;13.264;2022-09-09T04:04:43;14.00;99.90
19218;DHT22;9743;52.550;13.264;2022-09-09T04:07:19;14.00;99.90
19218;DHT22;9743;52.550;13.264;2022-09-09T04:09:48;14.00;99.90
19218;DHT22;9743;52.550;13.264;2022-09-09T04:12:15;13.90;99.90
19218;DHT22;9743;52.550;13.264;2022-09-09T04:14:46;13.80;99.90
19218;DHT22;9743;52.550;13.264;2022-09-09T04:17:20;13.80;99.90
19218;DHT22;9743;52.550;13.264;2022-09-09T04:19:47;13.80;99.90
19218;DHT22;9743;52.550;13.264;2022-09-09T04:22:14;13.80;99.90
19218;DHT22;9743;52.550;13.264;2022-09-09T04:24:41;13.70;99.90
19218;DHT22;9743;52.550;13.264;2022-09-09T04:27:10;13.70;99.90
19218;DHT22;9743;52.550;13.264;2022-09-09T04:29:37;13.70;99.90
19218;DHT22;9743;52.550;13.264;2022-09-09T04:32:04;13.70;99.90
19218;DHT22;9743;52.550;13.264;2022-09-09T04:34:31;13.60;99.90
19218;DHT22;9743;52.550;13.264;2022-09-09T04:36:58;13.50;99.90
19218;DHT22;9743;52.550;13.264;2022-09-09T04:39:26;13.60;99.90
19218;DHT22;9743;52.550;13.264;2022-09-09T04:41:52;13.60;99.90
19218;DHT22;9743;52.550;13.264;2022-09-09T04:44:21;13.60;99.90
19218;DHT22;9743;52.550;13.264;2022-09-09T04:46:47;13.60;99.90
19218;DHT22;9743;52.550;13.264;2022-09-09T04:49:14;13.60;99.90
19218;DHT22;9743;52.550;13.264;2022-09-09T04:51:41;13.60;99.90
19218;DHT22;9743;52.550;13.264;2022-09-09T04:54:08;13.60;99.90
19218;DHT22;9743;52.550;13.264;2022-09-09T04:56:35;13.60;99.90
19218;DHT22;9743;52.550;13.264;2022-09-09T04:59:02;13.60;99.90
19218;DHT22;9743;52.550;13.264;2022-09-09T05:01:31;13.70;99.90
19218;DHT22;9743;52.550;13.264;2022-09-09T05:04:02;13.90;99.90
19218;DHT22;9743;52.550;13.264;2022-09-09T05:09:57;14.00;99.90
19218;DHT22;9743;52.550;13.264;2022-09-09T05:13:21;14.20;99.90
19218;DHT22;9743;52.550;13.264;2022-09-09T05:16:05;14.10;99.90
19218;DHT22;9743;52.550;13.264;2022-09-09T05:18:39;14.30;99.90
19218;DHT22;9743;52.550;13.264;2022-09-09T05:21:23;14.30;99.90
19218;DHT22;9743;52.550;13.264;2022-09-09T05:23:51;14.50;99.90
19218;DHT22;9743;52.550;13.264;2022-09-09T05:26:21;14.60;99.90
19218;DHT22;9743;52.550;13.264;2022-09-09T05:28:49;14.60;99.90
19218;DHT22;9743;52.550;13.264;2022-09-09T05:31:30;14.70;99.90
19218;DHT22;9743;52.550;13.264;2022-09-09T05:33:59;14.80;99.90
19218;DHT22;9743;52.550;13.264;2022-09-09T05:36:26;14.80;99.90
19218;DHT22;9743;52.550;13.264;2022-09-09T05:38:55;15.00;99.90
19218;DHT22;9743;52.550;13.264;2022-09-09T05:41:22;15.00;99.90
19218;DHT22;9743;52.550;13.264;2022-09-09T05:43:49;15.10;99.90
19218;DHT22;9743;52.550;13.264;2022-09-09T05:46:17;15.20;99.90
19218;DHT22;9743;52.550;13.264;2022-09-09T05:48:48;15.10;99.90
19218;DHT22;9743;52.550;13.264;2022-09-09T05:51:19;15.10;99.90
19218;DHT22;9743;52.550;13.264;2022-09-09T05:53:48;15.10;99.90
19218;DHT22;9743;52.550;13.264;2022-09-09T05:56:16;15.10;99.90
19218;DHT22;9743;52.550;13.264;2022-09-09T05:58:44;15.00;99.90
19218;DHT22;9743;52.550;13.264;2022-09-09T06:01:13;14.90;99.90
19218;DHT22;9743;52.550;13.264;2022-09-09T06:03:42;14.90;99.90
19218;DHT22;9743;52.550;13.264;2022-09-09T06:06:11;14.80;99.90
19218;DHT22;9743;52.550;13.264;2022-09-09T06:08:41;14.80;99.90
19218;DHT22;9743;52.550;13.264;2022-09-09T06:11:11;15.00;99.90
19218;DHT22;9743;52.550;13.264;2022-09-09T06:13:38;15.10;99.90
19218;DHT22;9743;52.550;13.264;2022-09-09T06:16:05;15.40;99.90
19218;DHT22;9743;52.550;13.264;2022-09-09T06:18:32;15.20;99.90
19218;DHT22;9743;52.550;13.264;2022-09-09T06:21:01;15.20;99.90
19218;DHT22;9743;52.550;13.264;2022-09-09T06:23:30;15.40;99.90
19218;DHT22;9743;52.550;13.264;2022-09-09T06:26:06;15.60;99.90
19218;DHT22;9743;52.550;13.264;2022-09-09T06:28:33;15.70;99.90
19218;DHT22;9743;52.550;13.264;2022-09-09T06:31:01;15.60;99.90
19218;DHT22;9743;52.550;13.264;2022-09-09T06:33:31;15.60;99.90
19218;DHT22;9743;52.550;13.264;2022-09-09T06:36:00;15.80;99.90
19218;DHT22;9743;52.550;13.264;2022-09-09T06:38:29;15.90;99.90
19218;DHT22;9743;52.550;13.264;2022-09-09T06:40:57;15.90;99.90
19218;DHT22;9743;52.550;13.264;2022-09-09T06:43:26;15.80;99.90
19218;DHT22;9743;52.550;13.264;2022-09-09T06:45:54;16.00;99.90
19218;DHT22;9743;52.550;13.264;2022-09-09T06:48:21;15.90;99.90
19218;DHT22;9743;52.550;13.264;2022-09-09T06:50:47;15.90;99.90
19218;DHT22;9743;52.550;13.264;2022-09-09T06:53:16;15.80;99.90
19218;DHT22;9743;52.550;13.264;2022-09-09T06:55:44;15.80;99.90
19218;DHT22;9743;52.550;13.264;2022-09-09T06:58:11;15.90;99.90
19218;DHT22;9743;52.550;13.264;2022-09-09T07:00:39;16.00;99.90
19218;DHT22;9743;52.550;13.264;2022-09-09T07:03:06;16.10;99.90
19218;DHT22;9743;52.550;13.264;2022-09-09T07:05:33;16.50;99.90
19218;DHT22;9743;52.550;13.264;2022-09-09T07:08:00;16.40;99.90
19218;DHT22;9743;52.550;13.264;2022-09-09T07:10:27;16.40;99.90
19218;DHT22;9743;52.550;13.264;2022-09-09T07:12:54;16.60;99.90
19218;DHT22;9743;52.550;13.264;2022-09-09T07:15:20;16.40;99.90
19218;DHT22;9743;52.550;13.264;2022-09-09T07:17:49;16.30;99.90
19218;DHT22;9743;52.550;13.264;2022-09-09T07:20:17;16.50;99.90
19218;DHT22;9743;52.550;13.264;2022-09-09T07:22:45;16.70;99.90
19218;DHT22;9743;52.550;13.264;2022-09-09T07:25:12;16.90;99.90
19218;DHT22;9743;52.550;13.264;2022-09-09T07:27:39;17.10;99.90
19218;DHT22;9743;52.550;13.264;2022-09-09T07:30:07;17.30;99.90
19218;DHT22;9743;52.550;13.264;2022-09-09T07:32:34;17.60;99.90
19218;DHT22;9743;52.550;13.264;2022-09-09T07:35:02;17.80;99.90
19218;DHT22;9743;52.550;13.264;2022-09-09T07:37:29;18.00;99.90
19218;DHT22;9743;52.550;13.264;2022-09-09T07:39:56;18.10;99.90
19218;DHT22;9743;52.550;13.264;2022-09-09T07:42:23;18.20;99.90
19218;DHT22;9743;52.550;13.264;2022-09-09T07:44:49;18.20;99.90
19218;DHT22;9743;52.550;13.264;2022-09-09T07:47:20;18.10;99.90
19218;DHT22;9743;52.550;13.264;2022-09-09T07:49:47;18.20;99.90
19218;DHT22;9743;52.550;13.264;2022-09-09T07:52:16;18.20;99.90
19218;DHT22;9743;52.550;13.264;2022-09-09T07:54:44;18.20;99.90
19218;DHT22;9743;52.550;13.264;2022-09-09T07:57:11;18.10;99.90
19218;DHT22;9743;52.550;13.264;2022-09-09T07:59:38;18.20;99.90
19218;DHT22;9743;52.550;13.264;2022-09-09T08:02:06;18.20;99.90
19218;DHT22;9743;52.550;13.264;2022-09-09T08:04:32;18.20;99.90
19218;DHT22;9743;52.550;13.264;2022-09-09T08:07:01;18.50;99.90
19218;DHT22;9743;52.550;13.264;2022-09-09T08:09:29;18.50;99.90
19218;DHT22;9743;52.550;13.264;2022-09-09T08:12:04;18.60;99.90
19218;DHT22;9743;52.550;13.264;2022-09-09T08:14:32;18.70;99.90
19218;DHT22;9743;52.550;13.264;2022-09-09T08:16:59;18.80;99.90
19218;DHT22;9743;52.550;13.264;2022-09-09T08:19:26;19.00;99.90
19218;DHT22;9743;52.550;13.264;2022-09-09T08:21:54;19.30;99.90
19218;DHT22;9743;52.550;13.264;2022-09-09T08:24:21;19.20;99.90
19218;DHT22;9743;52.550;13.264;2022-09-09T08:26:51;19.30;99.90
19218;DHT22;9743;52.550;13.264;2022-09-09T08:29:19;19.40;99.90
19218;DHT22;9743;52.550;13.264;2022-09-09T08:31:47;19.60;99.90
19218;DHT22;9743;52.550;13.264;2022-09-09T08:34:15;19.80;99.90
19218;DHT22;9743;52.550;13.264;2022-09-09T08:36:44;19.90;99.90
19218;DHT22;9743;52.550;13.264;2022-09-09T08:39:13;20.20;99.90
19218;DHT22;9743;52.550;13.264;2022-09-09T08:44:51;19.90;99.90
19218;DHT22;9743;52.550;13.264;2022-09-09T08:47:24;19.60;99.90
19218;DHT22;9743;52.550;13.264;2022-09-09T08:50:09;19.40;99.90
19218;DHT22;9743;52.550;13.264;2022-09-09T08:52:44;19.30;99.90
19218;DHT22;9743;52.550;13.264;2022-09-09T08:55:21;19.40;99.90
19218;DHT22;9743;52.550;13.264;2022-09-09T08:57:49;19.50;99.90
19218;DHT22;9743;52.550;13.264;2022-09-09T09:00:19;19.60;99.90
19218;DHT22;9743;52.550;13.264;2022-09-09T09:02:49;20.00;99.90
19218;DHT22;9743;52.550;13.264;2022-09-09T09:05:25;20.00;99.90
19218;DHT22;9743;52.550;13.264;2022-09-09T09:08:02;20.00;99.90
19218;DHT22;9743;52.550;13.264;2022-09-09T09:10:40;20.00;99.90
19218;DHT22;9743;52.550;13.264;2022-09-09T09:13:17;19.90;99.90
19218;DHT22;9743;52.550;13.264;2022-09-09T09:15:52;19.90;99.90
19218;DHT22;9743;52.550;13.264;2022-09-09T09:18:20;20.10;99.90
19218;DHT22;9743;52.550;13.264;2022-09-09T09:20:52;20.30;99.90
19218;DHT22;9743;52.550;13.264;2022-09-09T09:23:23;20.30;99.90
19218;DHT22;9743;52.550;13.264;2022-09-09T09:25:55;20.30;99.90
19218;DHT22;9743;52.550;13.264;2022-09-09T09:28:26;20.30;99.90
19218;DHT22;9743;52.550;13.264;2022-09-09T09:30:58;20.70;99.90
19218;DHT22;9743;52.550;13.264;2022-09-09T09:33:30;21.10;99.90
19218;DHT22;9743;52.550;13.264;2022-09-09T09:36:04;21.20;99.90
19218;DHT22;9743;52.550;13.264;2022-09-09T09:38:35;21.20;99.90
19218;DHT22;9743;52.550;13.264;2022-09-09T09:41:02;21.20;99.90
19218;DHT22;9743;52.550;13.264;2022-09-09T09:43:30;21.20;99.90
19218;DHT22;9743;52.550;13.264;2022-09-09T09:45:59;21.20;99.90
19218;DHT22;9743;52.550;13.264;2022-09-09T09:48:27;21.20;99.90
19218;DHT22;9743;52.550;13.264;2022-09-09T09:50:56;21.20;99.90
19218;DHT22;9743;52.550;13.264;2022-09-09T09:53:27;21.40;99.90
19218;DHT22;9743;52.550;13.264;2022-09-09T09:55:57;21.60;99.90
19218;DHT22;9743;52.550;13.264;2022-09-09T09:58:26;21.60;99.90
19218;DHT22;9743;52.550;13.264;2022-09-09T10:00:54;21.60;99.90
19218;DHT22;9743;52.550;13.264;2022-09-09T10:03:27;21.60;99.90
19218;DHT22;9743;52.550;13.264;2022-09-09T10:05:55;21.50;99.90
19218;DHT22;9743;52.550;13.264;2022-09-09T10:09:17;21.60;99.90
19218;DHT22;9743;52.550;13.264;2022-09-09T10:12:09;22.20;99.90
19218;DHT22;9743;52.550;13.264;2022-09-09T10:14:48;22.00;99.90
19218;DHT22;9743;52.550;13.264;2022-09-09T10:17:27;21.80;99.90
19218;DHT22;9743;52.550;13.264;2022-09-09T10:20:12;22.20;99.90
19218;DHT22;9743;52.550;13.264;2022-09-09T10:22:47;22.20;99.90
19218;DHT22;9743;52.550;13.264;2022-09-09T10:25:38;22.40;99.90
19218;DHT22;9743;52.550;13.264;2022-09-09T10:28:29;22.30;99.90
19218;DHT22;9743;52.550;13.264;2022-09-09T10:31:11;22.40;99.90
19218;DHT22;9743;52.550;13.264;2022-09-09T10:33:49;22.70;99.90
19218;DHT22;9743;52.550;13.264;2022-09-09T10:36:20;22.40;99.90
19218;DHT22;9743;52.550;13.264;2022-09-09T10:38:52;22.20;99.90
19218;DHT22;9743;52.550;13.264;2022-09-09T10:41:30;22.60;99.90
19218;DHT22;9743;52.550;13.264;2022-09-09T10:44:13;22.60;99.90
19218;DHT22;9743;52.550;13.264;2022-09-09T10:46:52;23.00;99.90
19218;DHT22;9743;52.550;13.264;2022-09-09T10:49:32;22.80;99.90
19218;DHT22;9743;52.550;13.264;2022-09-09T10:52:11;22.50;99.90
19218;DHT22;9743;52.550;13.264;2022-09-09T10:54:50;22.80;99.90
19218;DHT22;9743;52.550;13.264;2022-09-09T10:57:29;23.00;99.90
19218;DHT22;9743;52.550;13.264;2022-09-09T11:00:02;23.00;99.90
19218;DHT22;9743;52.550;13.264;2022-09-09T11:02:31;23.10;99.90
19218;DHT22;9743;52.550;13.264;2022-09-09T11:05:03;23.10;99.90
19218;DHT22;9743;52.550;13.264;2022-09-09T11:07:37;22.80;99.90
19218;DHT22;9743;52.550;13.264;2022-09-09T11:10:17;23.30;99.90
19218;DHT22;9743;52.550;13.264;2022-09-09T11:12:48;23.40;99.90
19218;DHT22;9743;52.550;13.264;2022-09-09T11:15:18;23.90;99.90
19218;DHT22;9743;52.550;13.264;2022-09-09T11:17:50;24.20;99.90
19218;DHT22;9743;52.550;13.264;2022-09-09T11:20:20;23.20;99.90
19218;DHT22;9743;52.550;13.264;2022-09-09T11:27:17;23.80;99.90
19218;DHT22;9743;52.550;13.264;2022-09-09T11:57:45;24.70;99.90
19218;DHT22;9743;52.550;13.264;2022-09-09T12:00:33;25.10;99.90
19218;DHT22;9743;52.550;13.264;2022-09-09T12:03:41;24.80;99.90
19218;DHT22;9743;52.550;13.264;2022-09-09T12:06:13;25.10;99.90
19218;DHT22;9743;52.550;13.264;2022-09-09T12:08:43;25.00;99.90
19218;DHT22;9743;52.550;13.264;2022-09-09T12:11:11;24.90;99.90
19218;DHT22;9743;52.550;13.264;2022-09-09T12:13:39;24.60;99.90
19218;DHT22;9743;52.550;13.264;2022-09-09T12:16:28;24.20;99.90
19218;DHT22;9743;52.550;13.264;2022-09-09T12:19:04;24.40;99.90
19218;DHT22;9743;52.550;13.264;2022-09-09T12:21:34;24.90;99.90
19218;DHT22;9743;52.550;13.264;2022-09-09T12:24:07;25.10;99.90
19218;DHT22;9743;52.550;13.264;2022-09-09T12:26:41;25.10;99.90
19218;DHT22;9743;52.550;13.264;2022-09-09T12:29:20;25.70;99.90
19218;DHT22;9743;52.550;13.264;2022-09-09T12:31:55;25.70;99.90
19218;DHT22;9743;52.550;13.264;2022-09-09T12:34:33;25.30;99.90
19218;DHT22;9743;52.550;13.264;2022-09-09T12:37:05;25.30;99.90
19218;DHT22;9743;52.550;13.264;2022-09-09T12:39:36;24.70;99.90
19218;DHT22;9743;52.550;13.264;2022-09-09T12:42:18;24.70;99.90
19218;DHT22;9743;52.550;13.264;2022-09-09T12:44:54;24.70;99.90
19218;DHT22;9743;52.550;13.264;2022-09-09T12:47:24;24.60;99.90
19218;DHT22;9743;52.550;13.264;2022-09-09T12:49:52;25.00;99.90
19218;DHT22;9743;52.550;13.264;2022-09-09T12:52:26;25.50;99.90
19218;DHT22;9743;52.550;13.264;2022-09-09T12:54:55;25.90;99.90
19218;DHT22;9743;52.550;13.264;2022-09-09T12:57:24;25.30;99.90
19218;DHT22;9743;52.550;13.264;2022-09-09T13:00:05;24.70;99.90
19218;DHT22;9743;52.550;13.264;2022-09-09T13:02:32;24.40;99.90
19218;DHT22;9743;52.550;13.264;2022-09-09T13:05:08;24.60;99.90
19218;DHT22;9743;52.550;13.264;2022-09-09T13:07:40;24.30;99.90
19218;DHT22;9743;52.550;13.264;2022-09-09T13:10:11;24.30;99.90
19218;DHT22;9743;52.550;13.264;2022-09-09T13:12:56;24.60;99.90
19218;DHT22;9743;52.550;13.264;2022-09-09T13:52:34;23.40;99.90
19218;DHT22;9743;52.550;13.264;2022-09-09T13:55:01;23.70;99.90
19218;DHT22;9743;52.550;13.264;2022-09-09T13:57:28;23.80;99.90
19218;DHT22;9743;52.550;13.264;2022-09-09T13:59:55;24.30;99.90
19218;DHT22;9743;52.550;13.264;2022-09-09T14:02:23;24.60;99.90
19218;DHT22;9743;52.550;13.264;2022-09-09T14:04:50;24.80;99.90
19218;DHT22;9743;52.550;13.264;2022-09-09T14:07:20;24.60;99.90
19218;DHT22;9743;52.550;13.264;2022-09-09T14:09:49;24.60;99.90
19218;DHT22;9743;52.550;13.264;2022-09-09T14:12:17;23.90;99.90
19218;DHT22;9743;52.550;13.264;2022-09-09T14:14:45;23.70;99.90
19218;DHT22;9743;52.550;13.264;2022-09-09T14:17:13;23.90;99.90
19218;DHT22;9743;52.550;13.264;2022-09-09T14:19:59;23.60;99.90
19218;DHT22;9743;52.550;13.264;2022-09-09T14:22:27;23.60;99.90
19218;DHT22;9743;52.550;13.264;2022-09-09T14:24:55;24.00;99.90
19218;DHT22;9743;52.550;13.264;2022-09-09T14:27:23;24.20;99.90
19218;DHT22;9743;52.550;13.264;2022-09-09T14:29:52;23.90;99.90
19218;DHT22;9743;52.550;13.264;2022-09-09T14:35:25;23.90;99.90
19218;DHT22;9743;52.550;13.264;2022-09-09T14:37:55;24.30;99.90
19218;DHT22;9743;52.550;13.264;2022-09-09T14:40:24;24.50;99.90
19218;DHT22;9743;52.550;13.264;2022-09-09T14:43:05;24.70;99.90
19218;DHT22;9743;52.550;13.264;2022-09-09T14:45:32;24.20;99.90
19218;DHT22;9743;52.550;13.264;2022-09-09T14:47:59;23.60;99.90
19218;DHT22;9743;52.550;13.264;2022-09-09T14:50:26;23.70;99.90
19218;DHT22;9743;52.550;13.264;2022-09-09T14:52:54;23.30;99.90
19218;DHT22;9743;52.550;13.264;2022-09-09T14:55:21;23.10;99.90
19218;DHT22;9743;52.550;13.264;2022-09-09T15:01:27;23.30;99.90
19218;DHT22;9743;52.550;13.264;2022-09-09T15:03:56;23.40;99.90
19218;DHT22;9743;52.550;13.264;2022-09-09T15:13:25;23.20;99.90
19218;DHT22;9743;52.550;13.264;2022-09-09T15:16:17;23.50;99.90
19218;DHT22;9743;52.550;13.264;2022-09-09T15:18:56;23.40;99.90
19218;DHT22;9743;52.550;13.264;2022-09-09T15:21:25;23.30;99.90
19218;DHT22;9743;52.550;13.264;2022-09-09T15:23:52;23.70;99.90
19218;DHT22;9743;52.550;13.264;2022-09-09T15:26:19;23.50;99.90
19218;DHT22;9743;52.550;13.264;2022-09-09T15:28:46;23.70;99.90
19218;DHT22;9743;52.550;13.264;2022-09-09T15:31:17;23.20;99.90
19218;DHT22;9743;52.550;13.264;2022-09-09T15:33:47;23.20;99.90
19218;DHT22;9743;52.550;13.264;2022-09-09T15:36:20;23.40;99.90
19218;DHT22;9743;52.550;13.264;2022-09-09T15:38:47;23.20;99.90
19218;DHT22;9743;52.550;13.264;2022-09-09T15:41:16;23.40;99.90
19218;DHT22;9743;52.550;13.264;2022-09-09T15:43:44;23.40;99.90
19218;DHT22;9743;52.550;13.264;2022-09-09T15:46:23;23.30;99.90
19218;DHT22;9743;52.550;13.264;2022-09-09T15:48:54;23.30;99.90
19218;DHT22;9743;52.550;13.264;2022-09-09T15:51:23;23.10;99.90
19218;DHT22;9743;52.550;13.264;2022-09-09T15:53:54;22.80;99.90
19218;DHT22;9743;52.550;13.264;2022-09-09T15:56:21;22.70;99.90
19218;DHT22;9743;52.550;13.264;2022-09-09T15:58:48;22.70;99.90
19218;DHT22;9743;52.550;13.264;2022-09-09T16:01:15;22.90;99.90
19218;DHT22;9743;52.550;13.264;2022-09-09T16:03:44;22.90;99.90
19218;DHT22;9743;52.550;13.264;2022-09-09T16:06:12;23.00;99.90
19218;DHT22;9743;52.550;13.264;2022-09-09T16:08:42;22.90;99.90
19218;DHT22;9743;52.550;13.264;2022-09-09T16:11:11;22.60;99.90
19218;DHT22;9743;52.550;13.264;2022-09-09T16:13:40;22.50;99.90
19218;DHT22;9743;52.550;13.264;2022-09-09T16:16:07;22.50;99.90
19218;DHT22;9743;52.550;13.264;2022-09-09T16:18:36;22.60;99.90
19218;DHT22;9743;52.550;13.264;2022-09-09T16:21:04;22.60;99.90
19218;DHT22;9743;52.550;13.264;2022-09-09T16:23:31;22.50;99.90
19218;DHT22;9743;52.550;13.264;2022-09-09T16:26:00;22.40;99.90
19218;DHT22;9743;52.550;13.264;2022-09-09T16:28:27;22.40;99.90
19218;DHT22;9743;52.550;13.264;2022-09-09T16:30:54;22.30;99.90
19218;DHT22;9743;52.550;13.264;2022-09-09T16:33:23;22.20;99.90
19218;DHT22;9743;52.550;13.264;2022-09-09T16:35:51;22.10;99.90
19218;DHT22;9743;52.550;13.264;2022-09-09T16:38:18;22.20;99.90
19218;DHT22;9743;52.550;13.264;2022-09-09T16:40:44;22.20;99.90
19218;DHT22;9743;52.550;13.264;2022-09-09T16:43:12;22.10;99.90
19218;DHT22;9743;52.550;13.264;2022-09-09T16:45:42;22.00;99.90
19218;DHT22;9743;52.550;13.264;2022-09-09T16:48:10;21.90;99.90
19218;DHT22;9743;52.550;13.264;2022-09-09T16:50:37;21.90;99.90
19218;DHT22;9743;52.550;13.264;2022-09-09T16:53:05;21.80;99.90
19218;DHT22;9743;52.550;13.264;2022-09-09T16:55:37;21.70;99.90
19218;DHT22;9743;52.550;13.264;2022-09-09T16:58:04;21.70;99.90
19218;DHT22;9743;52.550;13.264;2022-09-09T17:00:33;21.70;99.90
19218;DHT22;9743;52.550;13.264;2022-09-09T17:03:00;21.40;99.90
19218;DHT22;9743;52.550;13.264;2022-09-09T17:05:27;21.30;99.90
19218;DHT22;9743;52.550;13.264;2022-09-09T17:07:54;21.30;99.90
19218;DHT22;9743;52.550;13.264;2022-09-09T17:10:24;21.30;99.90
19218;DHT22;9743;52.550;13.264;2022-09-09T17:12:51;21.10;99.90
19218;DHT22;9743;52.550;13.264;2022-09-09T17:15:21;20.80;99.90
19218;DHT22;9743;52.550;13.264;2022-09-09T17:17:50;20.70;99.90
19218;DHT22;9743;52.550;13.264;2022-09-09T17:20:19;20.70;99.90
19218;DHT22;9743;52.550;13.264;2022-09-09T17:22:47;20.80;99.90
19218;DHT22;9743;52.550;13.264;2022-09-09T17:25:14;20.80;99.90